sensor_id;sensor_type;location;lat;lon;timestamp;P1;durP1;ratioP1;P2;durP2;ratioP2
56075;SDS011;41951;49.022;12.066;2024-02-21T00:00:55;8.52;;;2.80;;
56075;SDS011;41951;49.022;12.066;2024-02-21T00:03:20;10.70;;;3.13;;
56075;SDS011;41951;49.022;12.066;2024-02-21T00:05:46;9.23;;;2.95;;
56075;SDS011;41951;49.022;12.066;2024-02-21T00:08:11;8.32;;;3.05;;
56075;SDS011;41951;49.022;12.066;2024-02-21T00:10:37;9.00;;;3.25;;
56075;SDS011;41951;49.022;12.066;2024-02-21T00:13:03;6.60;;;2.70;;
56075;SDS011;41951;49.022;12.066;2024-02-21T00:15:28;6.90;;;2.60;;
56075;SDS011;41951;49.022;12.066;2024-02-21T00:17:54;10.27;;;2.97;;
56075;SDS011;41951;49.022;12.066;2024-02-21T00:20:20;12.65;;;3.13;;
56075;SDS011;41951;49.022;12.066;2024-02-21T00:22:46;6.55;;;3.03;;
56075;SDS011;41951;49.022;12.066;2024-02-21T00:25:11;10.32;;;3.00;;
56075;SDS011;41951;49.022;12.066;2024-02-21T00:27:37;8.07;;;2.88;;
56075;SDS011;41951;49.022;12.066;2024-02-21T00:30:04;6.88;;;2.95;;
56075;SDS011;41951;49.022;12.066;2024-02-21T00:32:30;11.80;;;2.95;;
56075;SDS011;41951;49.022;12.066;2024-02-21T00:34:57;6.15;;;2.70;;
56075;SDS011;41951;49.022;12.066;2024-02-21T00:37:22;7.88;;;3.00;;
56075;SDS011;41951;49.022;12.066;2024-02-21T00:39:48;8.80;;;2.85;;
56075;SDS011;41951;49.022;12.066;2024-02-21T00:42:14;9.93;;;3.00;;
56075;SDS011;41951;49.022;12.066;2024-02-21T00:44:39;9.07;;;2.90;;
56075;SDS011;41951;49.022;12.066;2024-02-21T00:47:05;9.63;;;3.13;;
56075;SDS011;41951;49.022;12.066;2024-02-21T00:49:30;6.50;;;2.55;;
56075;SDS011;41951;49.022;12.066;2024-02-21T00:51:56;8.82;;;2.78;;
56075;SDS011;41951;49.022;12.066;2024-02-21T00:54:22;11.05;;;2.53;;
56075;SDS011;41951;49.022;12.066;2024-02-21T00:56:48;7.43;;;2.72;;
56075;SDS011;41951;49.022;12.066;2024-02-21T00:59:13;12.32;;;3.30;;
56075;SDS011;41951;49.022;12.066;2024-02-21T01:01:39;6.97;;;2.70;;
56075;SDS011;41951;49.022;12.066;2024-02-21T01:04:07;12.32;;;3.72;;
56075;SDS011;41951;49.022;12.066;2024-02-21T01:06:33;8.07;;;2.83;;
56075;SDS011;41951;49.022;12.066;2024-02-21T01:08:59;9.40;;;3.15;;
56075;SDS011;41951;49.022;12.066;2024-02-21T01:11:25;9.75;;;3.10;;
56075;SDS011;41951;49.022;12.066;2024-02-21T01:13:51;12.55;;;3.40;;
56075;SDS011;41951;49.022;12.066;2024-02-21T01:16:16;8.20;;;3.17;;
56075;SDS011;41951;49.022;12.066;2024-02-21T01:18:42;10.98;;;3.53;;
56075;SDS011;41951;49.022;12.066;2024-02-21T01:21:08;11.43;;;3.42;;
56075;SDS011;41951;49.022;12.066;2024-02-21T01:23:35;9.40;;;3.95;;
56075;SDS011;41951;49.022;12.066;2024-02-21T01:26:01;9.00;;;4.28;;
56075;SDS011;41951;49.022;12.066;2024-02-21T01:28:28;13.07;;;4.25;;
56075;SDS011;41951;49.022;12.066;2024-02-21T01:30:54;9.68;;;4.05;;
56075;SDS011;41951;49.022;12.066;2024-02-21T01:33:19;13.10;;;3.97;;
56075;SDS011;41951;49.022;12.066;2024-02-21T01:35:45;12.57;;;4.25;;
56075;SDS011;41951;49.022;12.066;2024-02-21T01:38:12;9.98;;;4.47;;
56075;SDS011;41951;49.022;12.066;2024-02-21T01:40:38;15.82;;;4.93;;
56075;SDS011;41951;49.022;12.066;2024-02-21T01:43:04;15.05;;;4.28;;
56075;SDS011;41951;49.022;12.066;2024-02-21T01:45:42;11.43;;;3.95;;
56075;SDS011;41951;49.022;12.066;2024-02-21T01:48:07;13.45;;;4.28;;
56075;SDS011;41951;49.022;12.066;2024-02-21T01:50:33;8.65;;;3.90;;
56075;SDS011;41951;49.022;12.066;2024-02-21T01:52:59;10.32;;;3.97;;
56075;SDS011;41951;49.022;12.066;2024-02-21T01:55:25;10.48;;;4.35;;
56075;SDS011;41951;49.022;12.066;2024-02-21T01:57:51;15.18;;;4.50;;
56075;SDS011;41951;49.022;12.066;2024-02-21T02:00:17;14.15;;;4.60;;
56075;SDS011;41951;49.022;12.066;2024-02-21T02:02:43;13.15;;;5.00;;
56075;SDS011;41951;49.022;12.066;2024-02-21T02:05:10;12.73;;;4.60;;
56075;SDS011;41951;49.022;12.066;2024-02-21T02:07:37;14.30;;;4.43;;
56075;SDS011;41951;49.022;12.066;2024-02-21T02:10:02;11.68;;;4.50;;
56075;SDS011;41951;49.022;12.066;2024-02-21T02:12:29;12.68;;;5.00;;
56075;SDS011;41951;49.022;12.066;2024-02-21T02:14:58;15.52;;;4.47;;
56075;SDS011;41951;49.022;12.066;2024-02-21T02:17:24;11.48;;;4.15;;
56075;SDS011;41951;49.022;12.066;2024-02-21T02:19:50;13.73;;;4.30;;
56075;SDS011;41951;49.022;12.066;2024-02-21T02:22:22;10.95;;;4.13;;
56075;SDS011;41951;49.022;12.066;2024-02-21T02:24:52;11.43;;;4.22;;
56075;SDS011;41951;49.022;12.066;2024-02-21T02:27:18;12.10;;;4.35;;
56075;SDS011;41951;49.022;12.066;2024-02-21T02:29:44;10.52;;;4.50;;
56075;SDS011;41951;49.022;12.066;2024-02-21T02:32:09;10.60;;;4.25;;
56075;SDS011;41951;49.022;12.066;2024-02-21T02:34:35;12.63;;;3.90;;
56075;SDS011;41951;49.022;12.066;2024-02-21T02:37:01;12.50;;;4.45;;
56075;SDS011;41951;49.022;12.066;2024-02-21T02:39:26;11.02;;;4.38;;
56075;SDS011;41951;49.022;12.066;2024-02-21T02:41:52;14.40;;;4.90;;
56075;SDS011;41951;49.022;12.066;2024-02-21T02:44:18;15.52;;;4.65;;
56075;SDS011;41951;49.022;12.066;2024-02-21T02:46:43;14.25;;;4.20;;
56075;SDS011;41951;49.022;12.066;2024-02-21T02:49:09;12.23;;;3.85;;
56075;SDS011;41951;49.022;12.066;2024-02-21T02:51:34;8.30;;;4.07;;
56075;SDS011;41951;49.022;12.066;2024-02-21T02:54:00;14.68;;;4.47;;
56075;SDS011;41951;49.022;12.066;2024-02-21T02:56:26;12.80;;;3.85;;
56075;SDS011;41951;49.022;12.066;2024-02-21T02:58:52;9.60;;;3.42;;
56075;SDS011;41951;49.022;12.066;2024-02-21T03:01:18;10.18;;;3.75;;
56075;SDS011;41951;49.022;12.066;2024-02-21T03:03:43;11.00;;;3.63;;
56075;SDS011;41951;49.022;12.066;2024-02-21T03:06:10;14.10;;;4.20;;
56075;SDS011;41951;49.022;12.066;2024-02-21T03:08:36;10.32;;;3.88;;
56075;SDS011;41951;49.022;12.066;2024-02-21T03:11:02;8.45;;;3.50;;
56075;SDS011;41951;49.022;12.066;2024-02-21T03:13:30;8.15;;;3.35;;
56075;SDS011;41951;49.022;12.066;2024-02-21T03:15:56;9.73;;;3.67;;
56075;SDS011;41951;49.022;12.066;2024-02-21T03:18:21;13.57;;;3.95;;
56075;SDS011;41951;49.022;12.066;2024-02-21T03:20:47;11.52;;;3.83;;
56075;SDS011;41951;49.022;12.066;2024-02-21T03:23:13;9.38;;;4.00;;
56075;SDS011;41951;49.022;12.066;2024-02-21T03:25:38;9.73;;;3.72;;
56075;SDS011;41951;49.022;12.066;2024-02-21T03:28:04;9.75;;;3.65;;
56075;SDS011;41951;49.022;12.066;2024-02-21T03:30:30;9.05;;;3.70;;
56075;SDS011;41951;49.022;12.066;2024-02-21T03:32:55;8.60;;;3.50;;
56075;SDS011;41951;49.022;12.066;2024-02-21T03:35:21;9.90;;;3.90;;
56075;SDS011;41951;49.022;12.066;2024-02-21T03:37:47;9.60;;;3.28;;
56075;SDS011;41951;49.022;12.066;2024-02-21T03:40:12;8.15;;;3.42;;
56075;SDS011;41951;49.022;12.066;2024-02-21T03:42:38;8.63;;;3.70;;
56075;SDS011;41951;49.022;12.066;2024-02-21T03:45:04;11.65;;;4.30;;
56075;SDS011;41951;49.022;12.066;2024-02-21T03:47:30;11.60;;;3.95;;
56075;SDS011;41951;49.022;12.066;2024-02-21T03:49:56;10.95;;;4.78;;
56075;SDS011;41951;49.022;12.066;2024-02-21T03:52:21;12.85;;;3.55;;
56075;SDS011;41951;49.022;12.066;2024-02-21T03:54:47;8.88;;;3.38;;
56075;SDS011;41951;49.022;12.066;2024-02-21T03:57:13;9.88;;;3.42;;
56075;SDS011;41951;49.022;12.066;2024-02-21T03:59:38;11.10;;;4.63;;
56075;SDS011;41951;49.022;12.066;2024-02-21T04:02:05;10.90;;;4.18;;
56075;SDS011;41951;49.022;12.066;2024-02-21T04:04:33;9.48;;;3.38;;
56075;SDS011;41951;49.022;12.066;2024-02-21T04:07:03;10.07;;;3.33;;
56075;SDS011;41951;49.022;12.066;2024-02-21T04:09:34;6.70;;;3.30;;
56075;SDS011;41951;49.022;12.066;2024-02-21T04:12:00;11.18;;;3.78;;
56075;SDS011;41951;49.022;12.066;2024-02-21T04:14:26;12.05;;;3.95;;
56075;SDS011;41951;49.022;12.066;2024-02-21T04:16:52;11.20;;;4.55;;
56075;SDS011;41951;49.022;12.066;2024-02-21T04:19:17;11.13;;;3.67;;
56075;SDS011;41951;49.022;12.066;2024-02-21T04:21:43;11.68;;;3.30;;
56075;SDS011;41951;49.022;12.066;2024-02-21T04:24:09;8.13;;;3.22;;
56075;SDS011;41951;49.022;12.066;2024-02-21T04:26:35;9.13;;;3.38;;
56075;SDS011;41951;49.022;12.066;2024-02-21T04:29:00;10.77;;;3.58;;
56075;SDS011;41951;49.022;12.066;2024-02-21T04:31:26;11.20;;;4.75;;
56075;SDS011;41951;49.022;12.066;2024-02-21T04:33:52;18.13;;;5.97;;
56075;SDS011;41951;49.022;12.066;2024-02-21T04:36:17;12.10;;;3.50;;
56075;SDS011;41951;49.022;12.066;2024-02-21T04:38:43;14.05;;;3.67;;
56075;SDS011;41951;49.022;12.066;2024-02-21T04:41:08;15.38;;;4.28;;
56075;SDS011;41951;49.022;12.066;2024-02-21T04:43:34;8.00;;;3.08;;
56075;SDS011;41951;49.022;12.066;2024-02-21T04:46:00;8.18;;;3.63;;
56075;SDS011;41951;49.022;12.066;2024-02-21T04:48:25;10.98;;;3.55;;
56075;SDS011;41951;49.022;12.066;2024-02-21T04:50:51;10.30;;;3.13;;
56075;SDS011;41951;49.022;12.066;2024-02-21T04:53:17;7.90;;;3.30;;
56075;SDS011;41951;49.022;12.066;2024-02-21T04:55:42;9.25;;;2.97;;
56075;SDS011;41951;49.022;12.066;2024-02-21T04:58:08;9.70;;;3.33;;
56075;SDS011;41951;49.022;12.066;2024-02-21T05:00:34;9.38;;;3.05;;
56075;SDS011;41951;49.022;12.066;2024-02-21T05:02:59;8.80;;;3.10;;
56075;SDS011;41951;49.022;12.066;2024-02-21T05:05:25;11.65;;;3.40;;
56075;SDS011;41951;49.022;12.066;2024-02-21T05:07:50;12.05;;;3.58;;
56075;SDS011;41951;49.022;12.066;2024-02-21T05:10:16;9.27;;;3.10;;
56075;SDS011;41951;49.022;12.066;2024-02-21T05:12:43;8.30;;;3.70;;
56075;SDS011;41951;49.022;12.066;2024-02-21T05:15:08;11.38;;;3.58;;
56075;SDS011;41951;49.022;12.066;2024-02-21T05:17:35;12.93;;;3.63;;
56075;SDS011;41951;49.022;12.066;2024-02-21T05:20:00;12.15;;;3.80;;
56075;SDS011;41951;49.022;12.066;2024-02-21T05:22:26;7.97;;;3.60;;
56075;SDS011;41951;49.022;12.066;2024-02-21T05:24:51;10.10;;;3.13;;
56075;SDS011;41951;49.022;12.066;2024-02-21T05:27:17;14.13;;;3.38;;
56075;SDS011;41951;49.022;12.066;2024-02-21T05:29:42;10.02;;;3.17;;
56075;SDS011;41951;49.022;12.066;2024-02-21T05:32:09;10.25;;;3.08;;
56075;SDS011;41951;49.022;12.066;2024-02-21T05:34:34;10.07;;;3.40;;
56075;SDS011;41951;49.022;12.066;2024-02-21T05:37:00;12.27;;;3.47;;
56075;SDS011;41951;49.022;12.066;2024-02-21T05:39:26;7.53;;;3.13;;
56075;SDS011;41951;49.022;12.066;2024-02-21T05:41:51;10.25;;;3.33;;
56075;SDS011;41951;49.022;12.066;2024-02-21T05:44:18;11.60;;;3.25;;
56075;SDS011;41951;49.022;12.066;2024-02-21T05:46:44;13.10;;;4.35;;
56075;SDS011;41951;49.022;12.066;2024-02-21T05:49:10;8.88;;;3.70;;
56075;SDS011;41951;49.022;12.066;2024-02-21T05:51:35;8.43;;;2.97;;
56075;SDS011;41951;49.022;12.066;2024-02-21T05:54:01;8.32;;;3.13;;
56075;SDS011;41951;49.022;12.066;2024-02-21T05:56:27;13.82;;;3.15;;
56075;SDS011;41951;49.022;12.066;2024-02-21T05:58:53;13.43;;;3.33;;
56075;SDS011;41951;49.022;12.066;2024-02-21T06:01:19;12.68;;;3.33;;
56075;SDS011;41951;49.022;12.066;2024-02-21T06:03:46;7.75;;;2.90;;
56075;SDS011;41951;49.022;12.066;2024-02-21T06:06:11;10.98;;;2.88;;
56075;SDS011;41951;49.022;12.066;2024-02-21T06:08:37;10.27;;;3.20;;
56075;SDS011;41951;49.022;12.066;2024-02-21T06:11:05;10.00;;;3.00;;
56075;SDS011;41951;49.022;12.066;2024-02-21T06:13:30;10.15;;;3.25;;
56075;SDS011;41951;49.022;12.066;2024-02-21T06:15:56;10.85;;;3.55;;
56075;SDS011;41951;49.022;12.066;2024-02-21T06:18:21;10.25;;;2.97;;
56075;SDS011;41951;49.022;12.066;2024-02-21T06:20:47;8.75;;;3.00;;
56075;SDS011;41951;49.022;12.066;2024-02-21T06:23:12;11.27;;;3.53;;
56075;SDS011;41951;49.022;12.066;2024-02-21T06:25:40;10.43;;;3.28;;
56075;SDS011;41951;49.022;12.066;2024-02-21T06:28:06;6.00;;;2.40;;
56075;SDS011;41951;49.022;12.066;2024-02-21T06:30:31;10.25;;;2.97;;
56075;SDS011;41951;49.022;12.066;2024-02-21T06:32:57;9.30;;;3.00;;
56075;SDS011;41951;49.022;12.066;2024-02-21T06:35:24;9.18;;;3.10;;
56075;SDS011;41951;49.022;12.066;2024-02-21T06:37:50;9.50;;;3.15;;
56075;SDS011;41951;49.022;12.066;2024-02-21T06:40:17;6.35;;;2.60;;
56075;SDS011;41951;49.022;12.066;2024-02-21T06:42:42;13.63;;;2.85;;
56075;SDS011;41951;49.022;12.066;2024-02-21T06:45:08;10.27;;;3.10;;
56075;SDS011;41951;49.022;12.066;2024-02-21T06:47:34;9.30;;;2.78;;
56075;SDS011;41951;49.022;12.066;2024-02-21T06:49:59;10.38;;;3.13;;
56075;SDS011;41951;49.022;12.066;2024-02-21T06:52:25;7.85;;;2.67;;
56075;SDS011;41951;49.022;12.066;2024-02-21T06:54:51;10.05;;;3.17;;
56075;SDS011;41951;49.022;12.066;2024-02-21T06:57:17;10.63;;;2.63;;
56075;SDS011;41951;49.022;12.066;2024-02-21T06:59:46;10.00;;;2.80;;
56075;SDS011;41951;49.022;12.066;2024-02-21T07:02:12;8.70;;;2.97;;
56075;SDS011;41951;49.022;12.066;2024-02-21T07:04:37;7.95;;;2.95;;
56075;SDS011;41951;49.022;12.066;2024-02-21T07:07:03;8.05;;;2.70;;
56075;SDS011;41951;49.022;12.066;2024-02-21T07:09:28;10.38;;;2.70;;
56075;SDS011;41951;49.022;12.066;2024-02-21T07:11:56;7.55;;;3.10;;
56075;SDS011;41951;49.022;12.066;2024-02-21T07:14:22;10.77;;;3.00;;
56075;SDS011;41951;49.022;12.066;2024-02-21T07:16:48;11.10;;;2.88;;
56075;SDS011;41951;49.022;12.066;2024-02-21T07:19:13;12.10;;;2.65;;
56075;SDS011;41951;49.022;12.066;2024-02-21T07:21:39;11.27;;;2.70;;
56075;SDS011;41951;49.022;12.066;2024-02-21T07:24:07;9.88;;;2.53;;
56075;SDS011;41951;49.022;12.066;2024-02-21T07:26:33;9.80;;;3.22;;
56075;SDS011;41951;49.022;12.066;2024-02-21T07:28:58;12.98;;;2.97;;
56075;SDS011;41951;49.022;12.066;2024-02-21T07:31:24;6.13;;;2.72;;
56075;SDS011;41951;49.022;12.066;2024-02-21T07:33:49;10.27;;;3.25;;
56075;SDS011;41951;49.022;12.066;2024-02-21T07:36:15;7.43;;;2.88;;
56075;SDS011;41951;49.022;12.066;2024-02-21T07:38:53;8.07;;;2.58;;
56075;SDS011;41951;49.022;12.066;2024-02-21T07:41:18;8.52;;;3.15;;
56075;SDS011;41951;49.022;12.066;2024-02-21T07:43:44;7.40;;;2.88;;
56075;SDS011;41951;49.022;12.066;2024-02-21T07:46:09;13.95;;;3.08;;
56075;SDS011;41951;49.022;12.066;2024-02-21T07:48:35;12.15;;;2.80;;
56075;SDS011;41951;49.022;12.066;2024-02-21T07:51:00;7.78;;;3.05;;
56075;SDS011;41951;49.022;12.066;2024-02-21T07:53:26;10.35;;;2.83;;
56075;SDS011;41951;49.022;12.066;2024-02-21T07:55:52;9.20;;;2.55;;
56075;SDS011;41951;49.022;12.066;2024-02-21T07:58:17;12.15;;;2.85;;
56075;SDS011;41951;49.022;12.066;2024-02-21T08:00:43;10.05;;;2.60;;
56075;SDS011;41951;49.022;12.066;2024-02-21T08:03:08;6.80;;;2.78;;
56075;SDS011;41951;49.022;12.066;2024-02-21T08:05:34;9.57;;;3.10;;
56075;SDS011;41951;49.022;12.066;2024-02-21T08:08:00;8.25;;;2.88;;
56075;SDS011;41951;49.022;12.066;2024-02-21T08:10:25;8.32;;;2.70;;
56075;SDS011;41951;49.022;12.066;2024-02-21T08:12:51;9.27;;;2.90;;
56075;SDS011;41951;49.022;12.066;2024-02-21T08:15:16;8.82;;;2.75;;
56075;SDS011;41951;49.022;12.066;2024-02-21T08:17:42;8.35;;;2.47;;
56075;SDS011;41951;49.022;12.066;2024-02-21T08:20:08;6.88;;;2.60;;
56075;SDS011;41951;49.022;12.066;2024-02-21T08:22:36;6.95;;;2.72;;
56075;SDS011;41951;49.022;12.066;2024-02-21T08:25:03;11.07;;;3.10;;
56075;SDS011;41951;49.022;12.066;2024-02-21T08:27:30;9.20;;;3.35;;
56075;SDS011;41951;49.022;12.066;2024-02-21T08:29:56;8.77;;;2.90;;
56075;SDS011;41951;49.022;12.066;2024-02-21T08:32:21;10.98;;;2.60;;
56075;SDS011;41951;49.022;12.066;2024-02-21T08:34:47;7.88;;;2.40;;
56075;SDS011;41951;49.022;12.066;2024-02-21T08:37:12;8.00;;;3.08;;
56075;SDS011;41951;49.022;12.066;2024-02-21T08:39:38;13.02;;;3.15;;
56075;SDS011;41951;49.022;12.066;2024-02-21T08:42:04;10.65;;;2.60;;
56075;SDS011;41951;49.022;12.066;2024-02-21T08:44:30;11.65;;;3.13;;
56075;SDS011;41951;49.022;12.066;2024-02-21T08:46:55;11.10;;;2.78;;
56075;SDS011;41951;49.022;12.066;2024-02-21T08:49:21;7.53;;;2.80;;
56075;SDS011;41951;49.022;12.066;2024-02-21T08:51:46;10.25;;;3.35;;
56075;SDS011;41951;49.022;12.066;2024-02-21T08:54:12;9.85;;;2.85;;
56075;SDS011;41951;49.022;12.066;2024-02-21T08:56:38;9.73;;;2.70;;
56075;SDS011;41951;49.022;12.066;2024-02-21T08:59:03;10.15;;;3.33;;
56075;SDS011;41951;49.022;12.066;2024-02-21T09:01:29;9.07;;;2.78;;
56075;SDS011;41951;49.022;12.066;2024-02-21T09:03:55;10.60;;;2.70;;
56075;SDS011;41951;49.022;12.066;2024-02-21T09:06:21;9.88;;;2.90;;
56075;SDS011;41951;49.022;12.066;2024-02-21T09:08:47;8.10;;;2.88;;
56075;SDS011;41951;49.022;12.066;2024-02-21T09:11:13;7.93;;;3.00;;
56075;SDS011;41951;49.022;12.066;2024-02-21T09:13:39;9.18;;;2.95;;
56075;SDS011;41951;49.022;12.066;2024-02-21T09:16:04;10.80;;;2.85;;
56075;SDS011;41951;49.022;12.066;2024-02-21T09:18:31;11.73;;;3.00;;
56075;SDS011;41951;49.022;12.066;2024-02-21T09:20:56;10.45;;;2.90;;
56075;SDS011;41951;49.022;12.066;2024-02-21T09:23:25;10.75;;;2.85;;
56075;SDS011;41951;49.022;12.066;2024-02-21T09:25:51;12.32;;;2.63;;
56075;SDS011;41951;49.022;12.066;2024-02-21T09:28:16;8.88;;;3.55;;
56075;SDS011;41951;49.022;12.066;2024-02-21T09:30:42;10.30;;;2.58;;
56075;SDS011;41951;49.022;12.066;2024-02-21T09:33:08;10.98;;;2.70;;
56075;SDS011;41951;49.022;12.066;2024-02-21T09:35:33;8.52;;;3.10;;
56075;SDS011;41951;49.022;12.066;2024-02-21T09:37:59;7.40;;;2.42;;
56075;SDS011;41951;49.022;12.066;2024-02-21T09:40:25;7.65;;;2.40;;
56075;SDS011;41951;49.022;12.066;2024-02-21T09:42:53;7.90;;;2.90;;
56075;SDS011;41951;49.022;12.066;2024-02-21T09:45:29;11.75;;;3.03;;
56075;SDS011;41951;49.022;12.066;2024-02-21T09:50:45;9.80;;;2.67;;
56075;SDS011;41951;49.022;12.066;2024-02-21T09:53:12;6.60;;;2.55;;
56075;SDS011;41951;49.022;12.066;2024-02-21T09:55:39;6.90;;;2.25;;
56075;SDS011;41951;49.022;12.066;2024-02-21T09:58:06;10.55;;;2.90;;
56075;SDS011;41951;49.022;12.066;2024-02-21T10:00:33;9.10;;;2.47;;
56075;SDS011;41951;49.022;12.066;2024-02-21T10:03:00;7.93;;;2.60;;
56075;SDS011;41951;49.022;12.066;2024-02-21T10:05:25;7.60;;;3.00;;
56075;SDS011;41951;49.022;12.066;2024-02-21T10:07:52;7.60;;;2.20;;
56075;SDS011;41951;49.022;12.066;2024-02-21T10:10:19;8.18;;;2.38;;
56075;SDS011;41951;49.022;12.066;2024-02-21T10:12:50;10.07;;;3.03;;
56075;SDS011;41951;49.022;12.066;2024-02-21T10:15:19;6.30;;;2.55;;
56075;SDS011;41951;49.022;12.066;2024-02-21T10:17:47;8.32;;;3.13;;
56075;SDS011;41951;49.022;12.066;2024-02-21T10:20:13;10.68;;;2.53;;
56075;SDS011;41951;49.022;12.066;2024-02-21T10:22:40;8.80;;;2.60;;
56075;SDS011;41951;49.022;12.066;2024-02-21T10:25:09;6.18;;;2.40;;
56075;SDS011;41951;49.022;12.066;2024-02-21T10:27:38;7.93;;;2.83;;
56075;SDS011;41951;49.022;12.066;2024-02-21T10:30:07;7.45;;;2.60;;
56075;SDS011;41951;49.022;12.066;2024-02-21T10:32:50;7.88;;;2.45;;
56075;SDS011;41951;49.022;12.066;2024-02-21T10:35:25;6.78;;;2.40;;
56075;SDS011;41951;49.022;12.066;2024-02-21T10:37:55;9.10;;;2.60;;
56075;SDS011;41951;49.022;12.066;2024-02-21T10:40:24;8.30;;;2.20;;
56075;SDS011;41951;49.022;12.066;2024-02-21T10:42:56;7.20;;;2.53;;
56075;SDS011;41951;49.022;12.066;2024-02-21T10:45:30;10.27;;;2.65;;
56075;SDS011;41951;49.022;12.066;2024-02-21T10:48:06;6.30;;;2.13;;
56075;SDS011;41951;49.022;12.066;2024-02-21T10:51:02;6.90;;;3.10;;
56075;SDS011;41951;49.022;12.066;2024-02-21T10:53:44;7.95;;;2.25;;
56075;SDS011;41951;49.022;12.066;2024-02-21T10:59:01;6.93;;;2.15;;
56075;SDS011;41951;49.022;12.066;2024-02-21T11:01:30;7.15;;;2.75;;
56075;SDS011;41951;49.022;12.066;2024-02-21T11:04:07;7.80;;;2.53;;
56075;SDS011;41951;49.022;12.066;2024-02-21T11:06:36;8.98;;;2.42;;
56075;SDS011;41951;49.022;12.066;2024-02-21T11:09:03;6.53;;;1.98;;
56075;SDS011;41951;49.022;12.066;2024-02-21T11:14:27;5.40;;;2.15;;
56075;SDS011;41951;49.022;12.066;2024-02-21T11:16:53;14.27;;;2.83;;
56075;SDS011;41951;49.022;12.066;2024-02-21T11:19:21;8.80;;;2.95;;
56075;SDS011;41951;49.022;12.066;2024-02-21T11:21:48;9.68;;;2.22;;
56075;SDS011;41951;49.022;12.066;2024-02-21T11:24:25;7.45;;;2.00;;
56075;SDS011;41951;49.022;12.066;2024-02-21T11:27:16;7.30;;;2.13;;
56075;SDS011;41951;49.022;12.066;2024-02-21T11:32:15;6.63;;;2.05;;
56075;SDS011;41951;49.022;12.066;2024-02-21T11:34:58;5.50;;;2.13;;
56075;SDS011;41951;49.022;12.066;2024-02-21T11:37:29;7.90;;;2.00;;
56075;SDS011;41951;49.022;12.066;2024-02-21T11:39:55;6.45;;;1.90;;
56075;SDS011;41951;49.022;12.066;2024-02-21T11:42:21;6.35;;;1.95;;
56075;SDS011;41951;49.022;12.066;2024-02-21T11:44:47;6.47;;;1.90;;
56075;SDS011;41951;49.022;12.066;2024-02-21T11:47:14;8.57;;;2.20;;
56075;SDS011;41951;49.022;12.066;2024-02-21T11:49:44;6.07;;;2.20;;
56075;SDS011;41951;49.022;12.066;2024-02-21T11:52:11;6.43;;;1.95;;
56075;SDS011;41951;49.022;12.066;2024-02-21T11:54:40;5.78;;;1.65;;
56075;SDS011;41951;49.022;12.066;2024-02-21T11:57:05;6.80;;;2.13;;
56075;SDS011;41951;49.022;12.066;2024-02-21T11:59:32;5.30;;;1.95;;
56075;SDS011;41951;49.022;12.066;2024-02-21T12:01:58;9.30;;;2.35;;
56075;SDS011;41951;49.022;12.066;2024-02-21T12:04:25;7.97;;;1.95;;
56075;SDS011;41951;49.022;12.066;2024-02-21T12:06:54;7.60;;;2.20;;
56075;SDS011;41951;49.022;12.066;2024-02-21T12:09:20;3.92;;;1.58;;
56075;SDS011;41951;49.022;12.066;2024-02-21T12:11:56;7.38;;;2.05;;
56075;SDS011;41951;49.022;12.066;2024-02-21T12:14:26;4.38;;;1.40;;
56075;SDS011;41951;49.022;12.066;2024-02-21T12:16:53;6.63;;;1.83;;
56075;SDS011;41951;49.022;12.066;2024-02-21T12:19:19;5.20;;;2.03;;
56075;SDS011;41951;49.022;12.066;2024-02-21T12:21:45;5.75;;;1.90;;
56075;SDS011;41951;49.022;12.066;2024-02-21T12:24:15;5.40;;;2.10;;
56075;SDS011;41951;49.022;12.066;2024-02-21T12:26:49;7.72;;;1.70;;
56075;SDS011;41951;49.022;12.066;2024-02-21T12:29:17;7.50;;;2.30;;
56075;SDS011;41951;49.022;12.066;2024-02-21T12:31:43;6.10;;;1.98;;
56075;SDS011;41951;49.022;12.066;2024-02-21T12:34:08;9.73;;;1.95;;
56075;SDS011;41951;49.022;12.066;2024-02-21T12:36:41;6.65;;;1.60;;
56075;SDS011;41951;49.022;12.066;2024-02-21T12:39:10;5.38;;;1.70;;
56075;SDS011;41951;49.022;12.066;2024-02-21T12:41:36;6.90;;;1.90;;
56075;SDS011;41951;49.022;12.066;2024-02-21T12:44:06;9.52;;;2.28;;
56075;SDS011;41951;49.022;12.066;2024-02-21T12:46:36;6.47;;;1.63;;
56075;SDS011;41951;49.022;12.066;2024-02-21T12:49:02;6.78;;;1.80;;
56075;SDS011;41951;49.022;12.066;2024-02-21T12:51:28;5.13;;;1.65;;
56075;SDS011;41951;49.022;12.066;2024-02-21T12:53:54;5.80;;;1.65;;
56075;SDS011;41951;49.022;12.066;2024-02-21T12:56:20;5.28;;;1.58;;
56075;SDS011;41951;49.022;12.066;2024-02-21T12:58:46;10.02;;;2.45;;
56075;SDS011;41951;49.022;12.066;2024-02-21T13:01:12;6.60;;;1.60;;
56075;SDS011;41951;49.022;12.066;2024-02-21T13:03:37;4.85;;;1.60;;
56075;SDS011;41951;49.022;12.066;2024-02-21T13:06:03;4.13;;;1.63;;
56075;SDS011;41951;49.022;12.066;2024-02-21T13:08:29;6.03;;;1.77;;
56075;SDS011;41951;49.022;12.066;2024-02-21T13:10:55;9.15;;;1.75;;
56075;SDS011;41951;49.022;12.066;2024-02-21T13:13:21;7.97;;;1.80;;
56075;SDS011;41951;49.022;12.066;2024-02-21T13:15:46;5.45;;;1.88;;
56075;SDS011;41951;49.022;12.066;2024-02-21T13:18:12;4.70;;;1.60;;
56075;SDS011;41951;49.022;12.066;2024-02-21T13:20:37;9.65;;;2.00;;
56075;SDS011;41951;49.022;12.066;2024-02-21T13:23:03;5.97;;;1.90;;
56075;SDS011;41951;49.022;12.066;2024-02-21T13:25:28;7.35;;;1.90;;
56075;SDS011;41951;49.022;12.066;2024-02-21T13:27:54;5.88;;;1.77;;
56075;SDS011;41951;49.022;12.066;2024-02-21T13:30:21;9.32;;;1.73;;
56075;SDS011;41951;49.022;12.066;2024-02-21T13:32:47;8.10;;;1.55;;
56075;SDS011;41951;49.022;12.066;2024-02-21T13:35:13;3.28;;;1.45;;
56075;SDS011;41951;49.022;12.066;2024-02-21T13:37:39;5.55;;;1.80;;
56075;SDS011;41951;49.022;12.066;2024-02-21T13:40:06;4.82;;;1.67;;
56075;SDS011;41951;49.022;12.066;2024-02-21T13:42:34;5.85;;;1.52;;
56075;SDS011;41951;49.022;12.066;2024-02-21T13:45:00;4.95;;;1.90;;
56075;SDS011;41951;49.022;12.066;2024-02-21T13:47:26;6.20;;;1.85;;
56075;SDS011;41951;49.022;12.066;2024-02-21T13:49:51;6.78;;;1.80;;
56075;SDS011;41951;49.022;12.066;2024-02-21T13:52:17;4.82;;;1.65;;
56075;SDS011;41951;49.022;12.066;2024-02-21T13:54:45;8.18;;;2.00;;
56075;SDS011;41951;49.022;12.066;2024-02-21T13:57:10;6.95;;;2.70;;
56075;SDS011;41951;49.022;12.066;2024-02-21T13:59:36;7.85;;;2.05;;
56075;SDS011;41951;49.022;12.066;2024-02-21T14:02:01;4.85;;;1.75;;
56075;SDS011;41951;49.022;12.066;2024-02-21T14:04:27;7.57;;;1.70;;
56075;SDS011;41951;49.022;12.066;2024-02-21T14:06:55;6.18;;;2.00;;
56075;SDS011;41951;49.022;12.066;2024-02-21T14:09:20;4.03;;;1.40;;
56075;SDS011;41951;49.022;12.066;2024-02-21T14:11:46;6.00;;;1.83;;
56075;SDS011;41951;49.022;12.066;2024-02-21T14:14:11;6.78;;;2.05;;
56075;SDS011;41951;49.022;12.066;2024-02-21T14:16:37;5.75;;;1.83;;
56075;SDS011;41951;49.022;12.066;2024-02-21T14:19:02;6.88;;;1.70;;
56075;SDS011;41951;49.022;12.066;2024-02-21T14:21:28;4.72;;;1.80;;
56075;SDS011;41951;49.022;12.066;2024-02-21T14:23:54;5.95;;;1.58;;
56075;SDS011;41951;49.022;12.066;2024-02-21T14:26:19;5.60;;;1.70;;
56075;SDS011;41951;49.022;12.066;2024-02-21T14:28:46;4.20;;;1.70;;
56075;SDS011;41951;49.022;12.066;2024-02-21T14:31:12;7.07;;;2.05;;
56075;SDS011;41951;49.022;12.066;2024-02-21T14:33:37;4.80;;;1.60;;
56075;SDS011;41951;49.022;12.066;2024-02-21T14:36:03;6.35;;;1.80;;